Time;durP1;ratioP1;P1;durP2;ratioP2;P2;SDS_P1;SDS_P2;PMS_P1;PMS_P2;Temp;Humidity;BMP_temperature;BMP_pressure;BME280_temperature;BME280_humidity;BME280_pressure;Samples;Min_cycle;Max_cycle;Signal;HPM_P1;HPM_P2
2023/03/18 00:01:03;;;;;;;15.30;2.65;;;;;;;;;;5069336;28;20016;-70
2023/03/18 00:03:32;;;;;;;11.55;4.03;;;;;;;;;;5063717;28;20021;-70
2023/03/18 00:06:14;;;;;;;7.93;2.20;;;;;;;;;;5066323;28;20065;-70
2023/03/18 00:08:41;;;;;;;12.73;2.40;;;;;;;;;;5065962;28;20017;-69
2023/03/18 00:11:06;;;;;;;7.50;3.00;;;;;;;;;;5057113;28;20029;-70
2023/03/18 00:13:33;;;;;;;6.57;2.80;;;;;;;;;;5064557;28;20020;-69
2023/03/18 00:15:59;;;;;;;7.93;2.40;;;;;;;;;;5064101;28;20032;-69
2023/03/18 00:18:24;;;;;;;8.68;2.45;;;;;;;;;;5068535;28;20005;-69
2023/03/18 00:20:50;;;;;;;3.60;1.77;;;;;;;;;;5065910;28;20020;-70
2023/03/18 00:23:16;;;;;;;9.35;2.50;;;;;;;;;;5064903;28;20019;-69
2023/03/18 00:25:42;;;;;;;8.13;2.35;;;;;;;;;;5063217;28;20021;-70
2023/03/18 00:28:07;;;;;;;4.45;1.77;;;;;;;;;;5063960;28;20031;-70
2023/03/18 00:30:33;;;;;;;8.18;2.70;;;;;;;;;;5068212;28;20033;-69
2023/03/18 00:32:59;;;;;;;13.75;4.40;;;;;;;;;;5061551;28;20086;-69
2023/03/18 00:35:29;;;;;;;5.35;2.05;;;;;;;;;;5065668;28;20012;-69
2023/03/18 00:37:54;;;;;;;;;;;;;;;;;;5065006;28;20016;-70
2023/03/18 00:40:26;;;;;;;6.53;2.67;;;;;;;;;;5061785;28;19913;-70
2023/03/18 00:42:56;;;;;;;4.72;1.92;;;;;;;;;;5066628;28;20024;-70
2023/03/18 00:45:21;;;;;;;43.10;3.20;;;;;;;;;;5067209;28;20028;-69
2023/03/18 00:47:48;;;;;;;6.40;2.75;;;;;;;;;;5067591;28;20021;-69
2023/03/18 00:50:14;;;;;;;8.95;2.78;;;;;;;;;;5063824;28;20020;-70
2023/03/18 00:52:39;;;;;;;17.38;2.78;;;;;;;;;;5063696;28;20017;-70
2023/03/18 00:55:05;;;;;;;8.10;3.00;;;;;;;;;;5061498;28;20070;-70
2023/03/18 00:57:31;;;;;;;4.78;2.22;;;;;;;;;;5065684;28;20020;-70
2023/03/18 00:59:58;;;;;;;18.10;4.90;;;;;;;;;;5066526;28;20107;-70
2023/03/18 01:02:23;;;;;;;15.93;4.32;;;;;;;;;;5070166;28;20047;-70
2023/03/18 01:04:49;;;;;;;8.75;2.50;;;;;;;;;;5066898;28;20532;-69
2023/03/18 01:07:15;;;;;;;11.05;3.10;;;;;;;;;;5067944;28;20401;-70
2023/03/18 01:09:40;;;;;;;4.20;2.13;;;;;;;;;;5067423;28;20024;-69
2023/03/18 01:12:08;;;;;;;9.47;1.80;;;;;;;;;;5066343;28;20355;-69
2023/03/18 01:14:35;;;;;;;6.22;2.67;;;;;;;;;;5067467;28;20407;-69
2023/03/18 01:17:01;;;;;;;13.50;2.50;;;;;;;;;;5071196;28;20024;-70
2023/03/18 01:19:26;;;;;;;3.95;1.88;;;;;;;;;;5067841;28;20534;-69
2023/03/18 01:21:51;;;;;;;20.02;2.97;;;;;;;;;;5065684;28;20024;-70
2023/03/18 01:24:16;;;;;;;19.70;1.97;;;;;;;;;;5065602;28;20194;-69
2023/03/18 01:26:41;;;;;;;9.23;2.00;;;;;;;;;;5068634;28;20358;-69
2023/03/18 01:29:07;;;;;;;16.17;3.60;;;;;;;;;;5066246;28;20268;-69
2023/03/18 01:31:33;;;;;;;7.23;2.93;;;;;;;;;;5069107;28;20266;-71
2023/03/18 01:33:58;;;;;;;14.10;2.63;;;;;;;;;;5059438;28;20290;-69
2023/03/18 01:36:24;;;;;;;6.35;2.92;;;;;;;;;;5068515;28;20024;-69
2023/03/18 01:38:49;;;;;;;11.00;2.67;;;;;;;;;;5067037;28;20017;-69
2023/03/18 01:41:16;;;;;;;7.90;2.20;;;;;;;;;;5065501;28;20040;-69
2023/03/18 01:43:41;;;;;;;7.85;2.15;;;;;;;;;;5069094;28;20020;-69
2023/03/18 01:46:25;;;;;;;6.38;1.55;;;;;;;;;;5066921;28;20029;-69
2023/03/18 01:48:51;;;;;;;12.52;3.40;;;;;;;;;;5062542;28;20036;-69
2023/03/18 01:51:17;;;;;;;8.10;2.13;;;;;;;;;;5064066;28;20032;-69
2023/03/18 01:53:44;;;;;;;10.13;3.00;;;;;;;;;;5066018;28;20039;-69
2023/03/18 01:56:10;;;;;;;6.93;2.42;;;;;;;;;;5063857;28;20079;-69
2023/03/18 01:58:37;;;;;;;8.38;3.42;;;;;;;;;;5069908;28;20016;-70
2023/03/18 02:01:05;;;;;;;6.78;2.63;;;;;;;;;;5065158;28;20086;-69
2023/03/18 02:03:33;;;;;;;11.02;2.58;;;;;;;;;;5066376;28;20095;-69
2023/03/18 02:05:58;;;;;;;7.15;2.40;;;;;;;;;;5059826;28;20474;-70
2023/03/18 02:08:24;;;;;;;8.88;2.17;;;;;;;;;;5065404;28;20035;-69
2023/03/18 02:10:49;;;;;;;9.13;3.08;;;;;;;;;;5064922;28;20031;-69
2023/03/18 02:13:15;;;;;;;3.30;1.67;;;;;;;;;;5066072;28;20063;-69
2023/03/18 02:15:55;;;;;;;14.98;3.05;;;;;;;;;;5069049;28;20523;-69
2023/03/18 02:18:23;;;;;;;6.80;1.95;;;;;;;;;;5066702;28;20021;-69
2023/03/18 02:20:55;;;;;;;10.00;3.15;;;;;;;;;;5063230;28;20028;-69
2023/03/18 02:23:24;;;;;;;16.63;3.65;;;;;;;;;;5069049;28;20090;-69
2023/03/18 02:26:08;;;;;;;7.27;3.10;;;;;;;;;;5062477;28;20020;-70
2023/03/18 02:28:36;;;;;;;6.43;2.60;;;;;;;;;;5066593;28;20285;-69
2023/03/18 02:31:02;;;;;;;7.25;2.10;;;;;;;;;;5064501;28;20048;-69
2023/03/18 02:33:33;;;;;;;4.72;2.70;;;;;;;;;;5060353;28;20089;-69
2023/03/18 02:36:06;;;;;;;12.70;3.08;;;;;;;;;;5065603;28;20025;-72
2023/03/18 02:38:31;;;;;;;6.53;2.85;;;;;;;;;;5067788;28;20024;-68
2023/03/18 02:40:57;;;;;;;7.72;3.83;;;;;;;;;;5059521;28;20029;-69
2023/03/18 02:43:27;;;;;;;7.45;3.95;;;;;;;;;;5069587;28;20070;-70
2023/03/18 02:46:10;;;;;;;13.52;5.25;;;;;;;;;;5063405;28;20200;-70
2023/03/18 02:48:41;;;;;;;11.55;3.63;;;;;;;;;;5061051;28;20030;-69
2023/03/18 02:51:06;;;;;;;;;;;;;;;;;;5061072;28;20108;-69
2023/03/18 02:53:31;;;;;;;13.82;3.70;;;;;;;;;;5068299;28;20003;-69
2023/03/18 02:55:57;;;;;;;15.57;3.45;;;;;;;;;;5067133;28;20124;-69
2023/03/18 02:58:22;;;;;;;7.83;3.33;;;;;;;;;;5064801;28;20028;-69
2023/03/18 03:00:47;;;;;;;6.88;3.40;;;;;;;;;;5066791;28;20263;-69
2023/03/18 03:03:12;;;;;;;11.25;3.90;;;;;;;;;;5062077;28;20024;-69
2023/03/18 03:05:37;;;;;;;9.87;2.50;;;;;;;;;;5061555;28;20028;-69
2023/03/18 03:08:03;;;;;;;12.57;3.85;;;;;;;;;;5059686;28;20620;-69
2023/03/18 03:10:28;;;;;;;13.98;3.65;;;;;;;;;;5065983;28;20027;-70
2023/03/18 03:12:53;;;;;;;11.35;3.53;;;;;;;;;;5063103;28;20028;-69
2023/03/18 03:15:19;;;;;;;12.02;3.30;;;;;;;;;;5061782;28;20036;-69
2023/03/18 03:17:44;;;;;;;15.82;3.38;;;;;;;;;;5063758;28;20028;-70
2023/03/18 03:20:10;;;;;;;7.65;2.78;;;;;;;;;;5059305;28;20099;-71
2023/03/18 03:22:36;;;;;;;14.68;4.47;;;;;;;;;;5058579;28;20024;-69
2023/03/18 03:25:01;;;;;;;10.30;3.75;;;;;;;;;;5065999;28;20024;-69
2023/03/18 03:27:26;;;;;;;9.82;2.15;;;;;;;;;;5064876;28;20035;-69
2023/03/18 03:29:52;;;;;;;11.95;4.50;;;;;;;;;;5063105;28;20021;-69
2023/03/18 03:32:18;;;;;;;14.30;4.15;;;;;;;;;;5059508;28;20032;-70
2023/03/18 03:34:43;;;;;;;18.83;4.38;;;;;;;;;;5057718;28;20033;-69
2023/03/18 03:37:08;;;;;;;6.17;3.67;;;;;;;;;;5068105;28;20028;-70
2023/03/18 03:39:33;;;;;;;10.05;3.75;;;;;;;;;;5065332;28;20347;-69
2023/03/18 03:41:58;;;;;;;16.10;4.30;;;;;;;;;;5066424;28;20020;-69
2023/03/18 03:44:24;;;;;;;15.50;4.13;;;;;;;;;;5062252;28;20352;-69
2023/03/18 03:46:50;;;;;;;12.05;3.95;;;;;;;;;;5060295;28;20062;-69
2023/03/18 03:49:15;;;;;;;10.75;4.50;;;;;;;;;;5062149;28;20021;-69
2023/03/18 03:51:40;;;;;;;12.68;4.05;;;;;;;;;;5064676;28;20024;-69
2023/03/18 03:54:06;;;;;;;10.27;4.20;;;;;;;;;;5063815;28;20035;-69
2023/03/18 03:56:31;;;;;;;21.30;4.90;;;;;;;;;;5068236;28;20036;-70
2023/03/18 03:58:56;;;;;;;11.90;4.53;;;;;;;;;;5061492;28;20278;-69
2023/03/18 04:01:21;;;;;;;11.30;4.13;;;;;;;;;;5059085;28;20009;-70
2023/03/18 04:03:47;;;;;;;31.58;4.60;;;;;;;;;;5063981;28;20032;-69
2023/03/18 04:06:12;;;;;;;8.15;4.18;;;;;;;;;;5060671;28;20045;-69
2023/03/18 04:08:37;;;;;;;8.18;3.95;;;;;;;;;;5061077;28;20029;-70
2023/03/18 04:11:03;;;;;;;9.00;4.13;;;;;;;;;;5060781;28;20035;-69
2023/03/18 04:13:28;;;;;;;12.65;4.38;;;;;;;;;;5061054;28;20278;-70
2023/03/18 04:15:54;;;;;;;12.05;5.10;;;;;;;;;;5056353;28;20021;-69
2023/03/18 04:18:19;;;;;;;14.80;4.53;;;;;;;;;;5061398;28;20020;-69
2023/03/18 04:20:45;;;;;;;15.35;3.22;;;;;;;;;;5062198;28;20842;-69
2023/03/18 04:23:10;;;;;;;14.63;4.15;;;;;;;;;;5059911;28;20013;-71
2023/03/18 04:25:35;;;;;;;18.02;5.10;;;;;;;;;;5069457;28;20044;-69
2023/03/18 04:28:01;;;;;;;11.82;5.03;;;;;;;;;;5063260;28;20027;-69
2023/03/18 04:30:27;;;;;;;6.75;2.17;;;;;;;;;;5066583;28;20021;-69
2023/03/18 04:32:53;;;;;;;11.95;4.22;;;;;;;;;;5065654;28;20013;-69
2023/03/18 04:35:19;;;;;;;13.60;5.43;;;;;;;;;;5068840;28;20028;-69
2023/03/18 04:37:45;;;;;;;14.48;4.45;;;;;;;;;;5069416;28;20020;-69
2023/03/18 04:40:10;;;;;;;10.85;5.10;;;;;;;;;;5064989;28;20019;-71
2023/03/18 04:42:36;;;;;;;15.20;4.18;;;;;;;;;;5068515;28;20024;-68
2023/03/18 04:45:01;;;;;;;19.30;5.68;;;;;;;;;;5064677;28;20130;-69
2023/03/18 04:47:27;;;;;;;16.75;4.75;;;;;;;;;;5069387;28;20096;-70
2023/03/18 04:49:52;;;;;;;7.22;4.18;;;;;;;;;;5067141;28;20036;-69
2023/03/18 04:52:17;;;;;;;9.63;2.90;;;;;;;;;;5064439;28;20029;-69
2023/03/18 04:54:43;;;;;;;18.43;4.47;;;;;;;;;;5064503;28;20116;-69
2023/03/18 04:57:08;;;;;;;15.57;3.92;;;;;;;;;;5062855;28;20310;-69
2023/03/18 04:59:33;;;;;;;7.83;3.23;;;;;;;;;;5063982;28;20095;-69
2023/03/18 05:01:58;;;;;;;10.83;4.23;;;;;;;;;;5065836;28;20812;-69
2023/03/18 05:04:24;;;;;;;13.60;5.03;;;;;;;;;;5063718;28;20275;-69
2023/03/18 05:06:50;;;;;;;13.07;5.03;;;;;;;;;;5063313;28;20063;-69
2023/03/18 05:09:17;;;;;;;10.85;5.30;;;;;;;;;;5069521;28;20550;-69
2023/03/18 05:11:42;;;;;;;12.45;4.72;;;;;;;;;;5062620;28;20020;-70
2023/03/18 05:14:07;;;;;;;10.48;2.85;;;;;;;;;;5063193;28;20429;-69
2023/03/18 05:16:32;;;;;;;11.80;5.20;;;;;;;;;;5062184;28;20089;-69
2023/03/18 05:18:57;;;;;;;10.35;4.63;;;;;;;;;;5059846;28;20649;-70
2023/03/18 05:21:23;;;;;;;12.10;3.70;;;;;;;;;;5066270;28;20020;-69
2023/03/18 05:23:48;;;;;;;14.10;5.43;;;;;;;;;;5068436;28;20255;-70
2023/03/18 05:26:13;;;;;;;12.75;5.40;;;;;;;;;;5061671;28;20017;-69
2023/03/18 05:28:39;;;;;;;15.53;5.20;;;;;;;;;;5062306;28;20094;-69
2023/03/18 05:31:04;;;;;;;11.68;3.78;;;;;;;;;;5054007;28;20369;-69
2023/03/18 05:33:31;;;;;;;13.77;5.45;;;;;;;;;;5067094;28;20035;-69
2023/03/18 05:35:56;;;;;;;14.15;4.45;;;;;;;;;;5062059;28;20442;-69
2023/03/18 05:38:22;;;;;;;9.35;5.07;;;;;;;;;;5067794;28;20012;-69
2023/03/18 05:40:47;;;;;;;12.88;5.82;;;;;;;;;;5059432;28;20030;-69
2023/03/18 05:43:12;;;;;;;16.42;5.07;;;;;;;;;;5067563;28;20074;-69
2023/03/18 05:45:37;;;;;;;11.50;5.35;;;;;;;;;;5065070;28;20490;-69
2023/03/18 05:48:03;;;;;;;10.95;5.60;;;;;;;;;;5069119;28;20024;-69
2023/03/18 05:50:29;;;;;;;15.55;5.65;;;;;;;;;;5061557;28;20032;-69
2023/03/18 05:52:55;;;;;;;13.27;6.82;;;;;;;;;;5062575;28;20089;-69
2023/03/18 05:55:20;;;;;;;10.25;5.63;;;;;;;;;;5065392;28;20420;-69
2023/03/18 05:57:47;;;;;;;13.55;6.38;;;;;;;;;;5066156;28;21422;-70
2023/03/18 06:00:14;;;;;;;11.75;5.88;;;;;;;;;;5066718;28;20290;-69
2023/03/18 06:02:39;;;;;;;14.27;5.75;;;;;;;;;;5065057;28;20023;-69
2023/03/18 06:05:05;;;;;;;14.40;5.10;;;;;;;;;;5059737;28;20020;-69
2023/03/18 06:07:30;;;;;;;21.67;6.20;;;;;;;;;;5059003;28;20024;-69
2023/03/18 06:09:56;;;;;;;12.85;5.93;;;;;;;;;;5054243;28;20029;-69
2023/03/18 06:12:26;;;;;;;19.00;5.38;;;;;;;;;;5065997;28;20112;-70
2023/03/18 06:14:51;;;;;;;10.00;4.60;;;;;;;;;;5066168;28;20074;-69
2023/03/18 06:17:16;;;;;;;12.05;5.78;;;;;;;;;;5062906;28;20282;-69
2023/03/18 06:19:41;;;;;;;13.30;4.87;;;;;;;;;;5055247;28;20016;-69
2023/03/18 06:22:06;;;;;;;16.95;5.47;;;;;;;;;;5065705;28;20263;-69
2023/03/18 06:24:32;;;;;;;15.10;6.70;;;;;;;;;;5066038;28;20119;-69
2023/03/18 06:26:57;;;;;;;17.20;6.40;;;;;;;;;;5066124;28;20036;-69
2023/03/18 06:29:22;;;;;;;12.02;5.90;;;;;;;;;;5067517;28;20024;-69
2023/03/18 06:31:47;;;;;;;12.85;6.60;;;;;;;;;;5055430;28;20029;-69
2023/03/18 06:34:13;;;;;;;16.83;7.40;;;;;;;;;;5068291;28;20048;-70
2023/03/18 06:36:38;;;;;;;12.02;5.97;;;;;;;;;;5064192;28;20012;-71
2023/03/18 06:39:04;;;;;;;19.35;6.95;;;;;;;;;;5053987;28;20027;-69
2023/03/18 06:41:29;;;;;;;12.95;6.68;;;;;;;;;;5062511;28;20028;-70
2023/03/18 06:43:54;;;;;;;15.77;7.10;;;;;;;;;;5059100;28;20040;-69
2023/03/18 06:46:19;;;;;;;14.70;6.30;;;;;;;;;;5062056;28;20039;-69
2023/03/18 06:48:45;;;;;;;2.95;1.92;;;;;;;;;;5061115;28;20283;-69
2023/03/18 06:51:11;;;;;;;15.20;5.93;;;;;;;;;;5066584;28;20090;-70
2023/03/18 06:53:37;;;;;;;12.43;5.50;;;;;;;;;;5057565;28;20074;-70
2023/03/18 06:56:03;;;;;;;12.82;4.75;;;;;;;;;;5054624;28;20090;-70
2023/03/18 06:58:29;;;;;;;11.63;5.00;;;;;;;;;;5055418;28;20537;-70
2023/03/18 07:00:54;;;;;;;9.18;4.93;;;;;;;;;;5061416;28;20059;-71
2023/03/18 07:03:20;;;;;;;6.77;4.40;;;;;;;;;;5065837;28;20048;-70
2023/03/18 07:05:46;;;;;;;14.88;3.72;;;;;;;;;;5056448;28;20333;-70
2023/03/18 07:08:11;;;;;;;9.90;4.50;;;;;;;;;;5065885;28;20057;-70
2023/03/18 07:10:36;;;;;;;13.70;4.55;;;;;;;;;;5060816;28;20056;-71
2023/03/18 07:13:01;;;;;;;12.60;3.70;;;;;;;;;;5065150;28;20047;-70
2023/03/18 07:15:27;;;;;;;8.10;4.50;;;;;;;;;;5057891;28;20451;-69
2023/03/18 07:17:53;;;;;;;8.48;4.05;;;;;;;;;;5056612;28;20279;-69
2023/03/18 07:20:19;;;;;;;11.95;2.88;;;;;;;;;;5057641;28;20052;-72
2023/03/18 07:22:45;;;;;;;6.32;4.22;;;;;;;;;;5066118;28;20020;-69
2023/03/18 07:25:12;;;;;;;8.93;3.15;;;;;;;;;;5062881;28;20418;-69
2023/03/18 07:27:37;;;;;;;7.03;3.42;;;;;;;;;;5062263;28;20024;-69
2023/03/18 07:30:03;;;;;;;9.27;3.05;;;;;;;;;;5054184;28;20028;-70
2023/03/18 07:32:29;;;;;;;8.15;3.70;;;;;;;;;;5067123;28;20545;-69
2023/03/18 07:34:55;;;;;;;9.13;3.42;;;;;;;;;;5060033;28;20549;-69
2023/03/18 07:37:21;;;;;;;10.77;3.72;;;;;;;;;;5058243;28;20029;-70
2023/03/18 07:39:46;;;;;;;11.20;3.60;;;;;;;;;;5059099;28;20012;-70
2023/03/18 07:42:11;;;;;;;8.40;4.03;;;;;;;;;;5061357;28;20267;-69
2023/03/18 07:44:36;;;;;;;9.25;3.90;;;;;;;;;;5061195;28;20286;-69
2023/03/18 07:47:02;;;;;;;7.20;3.97;;;;;;;;;;5061139;28;20021;-69
2023/03/18 07:49:28;;;;;;;10.15;4.90;;;;;;;;;;5060427;28;20355;-70
2023/03/18 07:51:54;;;;;;;4.90;2.40;;;;;;;;;;5067863;28;20069;-69
2023/03/18 07:54:19;;;;;;;11.40;2.97;;;;;;;;;;5058525;28;20103;-70
2023/03/18 07:56:44;;;;;;;9.97;3.83;;;;;;;;;;5069834;28;20020;-69
2023/03/18 07:59:09;;;;;;;7.93;3.13;;;;;;;;;;5059579;28;20271;-69
2023/03/18 08:01:35;;;;;;;10.37;3.83;;;;;;;;;;5059870;28;20259;-69
2023/03/18 08:04:00;;;;;;;11.90;3.40;;;;;;;;;;5061036;28;20280;-69
2023/03/18 08:06:25;;;;;;;8.03;3.00;;;;;;;;;;5058690;28;20032;-69
2023/03/18 08:08:50;;;;;;;5.60;3.47;;;;;;;;;;5059886;28;20099;-69
2023/03/18 08:11:15;;;;;;;9.97;4.07;;;;;;;;;;5060042;28;20379;-69
2023/03/18 08:13:41;;;;;;;6.25;3.15;;;;;;;;;;5063619;28;20727;-69
2023/03/18 08:16:06;;;;;;;6.03;1.97;;;;;;;;;;5066682;28;20071;-69
2023/03/18 08:18:31;;;;;;;8.98;2.55;;;;;;;;;;5052353;28;20486;-69
2023/03/18 08:20:56;;;;;;;7.18;2.90;;;;;;;;;;5066920;28;20027;-69
2023/03/18 08:23:22;;;;;;;5.28;3.30;;;;;;;;;;5052539;28;20028;-71
2023/03/18 08:25:51;;;;;;;3.25;2.00;;;;;;;;;;5060395;28;20020;-69
2023/03/18 08:28:17;;;;;;;6.75;2.55;;;;;;;;;;5063533;28;20012;-69
2023/03/18 08:30:42;;;;;;;6.47;2.85;;;;;;;;;;5062914;28;20389;-69
2023/03/18 08:33:07;;;;;;;8.80;3.40;;;;;;;;;;5053118;28;20039;-69
2023/03/18 08:35:33;;;;;;;10.30;2.60;;;;;;;;;;5053076;28;20161;-69
2023/03/18 08:37:58;;;;;;;7.50;2.60;;;;;;;;;;5063919;28;20268;-69
2023/03/18 08:40:24;;;;;;;12.20;3.53;;;;;;;;;;5064069;28;20116;-69
2023/03/18 08:42:50;;;;;;;3.88;2.25;;;;;;;;;;5062982;28;20020;-69
2023/03/18 08:45:15;;;;;;;7.20;2.40;;;;;;;;;;5060653;28;20040;-69
2023/03/18 08:47:40;;;;;;;11.25;3.30;;;;;;;;;;5058469;28;20351;-69
2023/03/18 08:50:06;;;;;;;4.93;2.83;;;;;;;;;;5058916;28;20033;-69
2023/03/18 08:52:31;;;;;;;7.97;3.10;;;;;;;;;;5061734;28;20262;-69
2023/03/18 08:54:57;;;;;;;10.20;2.87;;;;;;;;;;5060039;28;20036;-69
2023/03/18 08:57:22;;;;;;;5.78;2.95;;;;;;;;;;5060603;28;20158;-69
2023/03/18 08:59:48;;;;;;;7.63;3.13;;;;;;;;;;5056678;28;20397;-69
2023/03/18 09:02:15;;;;;;;10.48;3.75;;;;;;;;;;5060191;28;20017;-69
2023/03/18 09:04:41;;;;;;;6.22;2.95;;;;;;;;;;5060109;28;20020;-69
2023/03/18 09:07:06;;;;;;;5.55;3.03;;;;;;;;;;5057562;28;20078;-69
2023/03/18 09:09:31;;;;;;;12.15;4.63;;;;;;;;;;5059580;28;20013;-69
2023/03/18 09:11:56;;;;;;;12.60;3.77;;;;;;;;;;5064213;28;20020;-69
2023/03/18 09:14:22;;;;;;;8.10;3.10;;;;;;;;;;5061446;28;20625;-69
2023/03/18 09:16:47;;;;;;;10.25;2.92;;;;;;;;;;5061209;28;20017;-69
2023/03/18 09:19:13;;;;;;;12.85;2.72;;;;;;;;;;5064454;28;20432;-69
2023/03/18 09:21:38;;;;;;;4.53;2.67;;;;;;;;;;5067620;28;20032;-69
2023/03/18 09:24:03;;;;;;;8.17;3.43;;;;;;;;;;5057333;28;20081;-69
2023/03/18 09:26:28;;;;;;;8.63;3.35;;;;;;;;;;5057388;28;20278;-69
2023/03/18 09:28:54;;;;;;;6.72;3.10;;;;;;;;;;5065210;28;20060;-71
2023/03/18 09:31:19;;;;;;;6.90;3.70;;;;;;;;;;5063982;28;20021;-69
2023/03/18 09:33:45;;;;;;;5.97;2.25;;;;;;;;;;5066686;28;20054;-69
2023/03/18 09:36:11;;;;;;;4.28;1.90;;;;;;;;;;5061340;28;20621;-69
2023/03/18 09:38:36;;;;;;;12.80;3.17;;;;;;;;;;5062208;28;20024;-69
2023/03/18 09:41:05;;;;;;;7.70;3.03;;;;;;;;;;5059315;28;20133;-69
2023/03/18 09:43:31;;;;;;;11.77;3.33;;;;;;;;;;5067793;28;20310;-69
2023/03/18 09:45:59;;;;;;;5.72;3.20;;;;;;;;;;5064276;28;20120;-69
2023/03/18 09:48:33;;;;;;;6.05;2.17;;;;;;;;;;5058341;28;20040;-69
2023/03/18 09:50:58;;;;;;;7.28;3.83;;;;;;;;;;5060725;28;20523;-69
2023/03/18 09:53:30;;;;;;;3.30;1.67;;;;;;;;;;5058993;28;20056;-69
2023/03/18 09:55:59;;;;;;;2.38;1.38;;;;;;;;;;5062670;28;20319;-69
2023/03/18 09:58:31;;;;;;;6.95;2.78;;;;;;;;;;5065689;28;20652;-70
2023/03/18 10:01:00;;;;;;;1.88;1.45;;;;;;;;;;5058663;28;20016;-70
2023/03/18 10:03:45;;;;;;;6.60;2.97;;;;;;;;;;5063106;28;20092;-69
2023/03/18 10:06:20;;;;;;;7.05;2.58;;;;;;;;;;5067475;28;20354;-70
2023/03/18 10:08:57;;;;;;;7.70;2.47;;;;;;;;;;5058945;28;20040;-70
2023/03/18 10:11:25;;;;;;;6.07;2.65;;;;;;;;;;5059305;28;20053;-70
2023/03/18 10:14:07;;;;;;;13.23;3.03;;;;;;;;;;5066194;28;20023;-70
2023/03/18 10:16:35;;;;;;;7.90;2.88;;;;;;;;;;5059815;28;20030;-70
2023/03/18 10:19:02;;;;;;;6.10;2.20;;;;;;;;;;5063401;28;20025;-70
2023/03/18 10:21:27;;;;;;;4.43;2.17;;;;;;;;;;5066228;28;20021;-70
2023/03/18 10:24:04;;;;;;;5.40;2.40;;;;;;;;;;5055379;28;20035;-70
2023/03/18 10:26:29;;;;;;;6.45;2.22;;;;;;;;;;5058595;28;20035;-71
2023/03/18 10:28:58;;;;;;;7.07;2.97;;;;;;;;;;5056779;28;20112;-70
2023/03/18 10:31:24;;;;;;;6.57;2.78;;;;;;;;;;5066948;28;20030;-70
2023/03/18 10:33:52;;;;;;;4.10;1.95;;;;;;;;;;5062217;28;20012;-70
2023/03/18 10:36:21;;;;;;;5.75;2.95;;;;;;;;;;5059986;28;20028;-70
2023/03/18 10:38:48;;;;;;;7.30;2.50;;;;;;;;;;5063476;28;20447;-70
2023/03/18 10:41:19;;;;;;;8.57;2.28;;;;;;;;;;5055045;28;20028;-70
2023/03/18 10:43:46;;;;;;;6.55;2.83;;;;;;;;;;5052695;28;20082;-70
2023/03/18 10:46:13;;;;;;;9.25;3.10;;;;;;;;;;5054770;28;20280;-70
2023/03/18 10:48:41;;;;;;;6.82;2.50;;;;;;;;;;5064754;28;20078;-70
2023/03/18 10:51:09;;;;;;;2.53;1.40;;;;;;;;;;5056115;28;20137;-70
2023/03/18 10:53:41;;;;;;;4.65;1.67;;;;;;;;;;5055753;28;20031;-70
2023/03/18 10:56:10;;;;;;;2.95;1.95;;;;;;;;;;5058962;28;20140;-70
2023/03/18 10:58:36;;;;;;;7.53;2.60;;;;;;;;;;5062359;28;20086;-70
2023/03/18 11:01:03;;;;;;;12.77;2.22;;;;;;;;;;5063861;28;20016;-70
2023/03/18 11:03:28;;;;;;;7.93;2.70;;;;;;;;;;5074377;28;20042;-70
2023/03/18 11:05:55;;;;;;;2.45;1.38;;;;;;;;;;5060074;28;20048;-70
2023/03/18 11:08:34;;;;;;;2.75;1.50;;;;;;;;;;5063923;28;20024;-70
2023/03/18 11:11:19;;;;;;;4.75;1.75;;;;;;;;;;5061828;28;20420;-70
2023/03/18 11:13:49;;;;;;;4.07;1.58;;;;;;;;;;5065966;28;20035;-70
2023/03/18 11:16:20;;;;;;;4.60;1.65;;;;;;;;;;5068705;28;20028;-70
2023/03/18 11:18:47;;;;;;;6.55;2.08;;;;;;;;;;5063741;28;20389;-70
2023/03/18 11:21:13;;;;;;;4.97;2.25;;;;;;;;;;5068416;28;20019;-70
2023/03/18 11:23:54;;;;;;;4.00;1.50;;;;;;;;;;5068009;28;20508;-70
2023/03/18 11:26:23;;;;;;;6.65;2.10;;;;;;;;;;5065670;28;20278;-70
2023/03/18 11:28:52;;;;;;;2.67;1.40;;;;;;;;;;5067808;28;20028;-70
2023/03/18 11:31:18;;;;;;;2.67;1.27;;;;;;;;;;5070782;28;20434;-70
2023/03/18 11:33:43;;;;;;;3.63;1.70;;;;;;;;;;5063004;28;20131;-70
2023/03/18 11:36:13;;;;;;;1.80;1.20;;;;;;;;;;5054926;28;20103;-70
2023/03/18 11:38:38;;;;;;;1.83;1.10;;;;;;;;;;5068019;28;20024;-70
2023/03/18 11:41:07;;;;;;;4.00;1.88;;;;;;;;;;5066163;28;20112;-70
2023/03/18 11:43:34;;;;;;;8.95;2.00;;;;;;;;;;5063098;28;20069;-71
2023/03/18 11:46:03;;;;;;;4.78;1.85;;;;;;;;;;5068370;28;20441;-71
2023/03/18 11:48:30;;;;;;;3.25;1.63;;;;;;;;;;5066556;28;20469;-71
2023/03/18 11:51:01;;;;;;;6.53;1.63;;;;;;;;;;5061396;28;20146;-71
2023/03/18 11:53:26;;;;;;;;;;;;;;;;;;5066904;28;20012;-71
2023/03/18 11:55:54;;;;;;;2.80;1.45;;;;;;;;;;5067432;28;19912;-71
2023/03/18 11:58:38;;;;;;;4.03;1.33;;;;;;;;;;5053927;28;20017;-71
2023/03/18 12:01:22;;;;;;;1.45;0.90;;;;;;;;;;5064200;28;20059;-71
2023/03/18 12:03:51;;;;;;;5.45;1.98;;;;;;;;;;5074335;28;20027;-70
2023/03/18 12:06:21;;;;;;;3.30;1.15;;;;;;;;;;5060324;28;20040;-71
2023/03/18 12:08:53;;;;;;;2.90;1.05;;;;;;;;;;5066531;28;20019;-71
2023/03/18 12:11:38;;;;;;;6.85;1.80;;;;;;;;;;5058879;28;20482;-71
2023/03/18 12:14:11;;;;;;;3.22;1.30;;;;;;;;;;5063572;28;20066;-71
2023/03/18 12:17:00;;;;;;;2.08;1.00;;;;;;;;;;5068211;28;20045;-71
2023/03/18 12:19:25;;;;;;;4.97;1.77;;;;;;;;;;5069841;28;20477;-71
2023/03/18 12:21:51;;;;;;;3.00;1.25;;;;;;;;;;5067295;28;20020;-71
2023/03/18 12:24:25;;;;;;;2.53;1.30;;;;;;;;;;5056940;28;20417;-71
2023/03/18 12:26:53;;;;;;;7.05;1.52;;;;;;;;;;5061322;28;20025;-71
2023/03/18 12:29:37;;;;;;;8.20;1.70;;;;;;;;;;5062638;28;20381;-71
2023/03/18 12:32:21;;;;;;;3.28;1.27;;;;;;;;;;5068454;28;20386;-71
2023/03/18 12:35:05;;;;;;;3.65;1.60;;;;;;;;;;5065765;28;20028;-71
2023/03/18 12:37:45;;;;;;;6.63;1.08;;;;;;;;;;5067941;28;20031;-71
2023/03/18 12:40:11;;;;;;;;;;;;;;;;;;5063715;28;20028;-71
2023/03/18 12:42:53;;;;;;;7.25;1.52;;;;;;;;;;5067202;28;20384;-71
2023/03/18 12:45:20;;;;;;;3.80;1.30;;;;;;;;;;5071708;28;20024;-71
2023/03/18 12:47:45;;;;;;;5.05;1.40;;;;;;;;;;5069208;28;20120;-71
2023/03/18 12:50:14;;;;;;;4.05;1.20;;;;;;;;;;5073764;28;20517;-71
2023/03/18 12:52:43;;;;;;;2.55;1.17;;;;;;;;;;5071929;28;20029;-71
2023/03/18 12:55:09;;;;;;;2.40;0.98;;;;;;;;;;5063159;28;20032;-71
2023/03/18 12:57:44;;;;;;;2.92;0.75;;;;;;;;;;5072007;28;20482;-71
2023/03/18 13:00:17;;;;;;;1.88;0.90;;;;;;;;;;5063749;28;20369;-71
2023/03/18 13:02:49;;;;;;;4.35;1.17;;;;;;;;;;5070579;28;20027;-71
2023/03/18 13:05:28;;;;;;;0.75;0.75;;;;;;;;;;5059953;28;20017;-71
2023/03/18 13:08:05;;;;;;;2.50;1.20;;;;;;;;;;5074133;28;20067;-71
2023/03/18 13:10:32;;;;;;;3.30;1.55;;;;;;;;;;5065832;28;20377;-71
2023/03/18 13:12:59;;;;;;;3.22;1.00;;;;;;;;;;5063630;28;20473;-71
2023/03/18 13:15:31;;;;;;;6.72;1.42;;;;;;;;;;5072699;28;20090;-71
2023/03/18 13:17:58;;;;;;;6.53;1.63;;;;;;;;;;5072071;28;20016;-71
2023/03/18 13:20:27;;;;;;;3.72;1.17;;;;;;;;;;5072167;28;20012;-71
2023/03/18 13:22:54;;;;;;;3.63;1.20;;;;;;;;;;5069014;28;20012;-71
2023/03/18 13:25:26;;;;;;;3.70;0.90;;;;;;;;;;5064700;28;20013;-71
2023/03/18 13:28:07;;;;;;;3.50;1.10;;;;;;;;;;5069793;28;20043;-71
2023/03/18 13:30:44;;;;;;;4.82;1.48;;;;;;;;;;5073996;28;20020;-71
2023/03/18 13:33:09;;;;;;;0.95;0.68;;;;;;;;;;5069943;28;20071;-71
2023/03/18 13:36:14;;;;;;;8.88;1.67;;;;;;;;;;5072492;28;20101;-71
2023/03/18 13:38:58;;;;;;;1.83;0.73;;;;;;;;;;5048644;28;20029;-71
2023/03/18 13:41:31;;;;;;;6.20;1.15;;;;;;;;;;5045048;28;20021;-70
2023/03/18 13:43:58;;;;;;;6.28;1.40;;;;;;;;;;5059522;28;20035;-70
2023/03/18 13:46:25;;;;;;;5.85;1.85;;;;;;;;;;5074083;28;20078;-70
2023/03/18 13:48:55;;;;;;;2.55;0.80;;;;;;;;;;5060657;28;20021;-70
2023/03/18 13:51:23;;;;;;;3.25;1.00;;;;;;;;;;5071080;28;20017;-71
2023/03/18 13:53:49;;;;;;;4.85;0.88;;;;;;;;;;5071725;28;20480;-70
2023/03/18 13:56:31;;;;;;;1.27;0.80;;;;;;;;;;5077822;28;20074;-70
2023/03/18 13:58:56;;;;;;;1.77;1.00;;;;;;;;;;5074859;28;20467;-70
2023/03/18 14:01:35;;;;;;;4.50;1.05;;;;;;;;;;5056756;28;20021;-70
2023/03/18 14:04:01;;;;;;;5.32;1.25;;;;;;;;;;5057538;28;20033;-70
2023/03/18 14:06:35;;;;;;;3.47;0.90;;;;;;;;;;5058920;28;20059;-70
2023/03/18 14:09:19;;;;;;;10.10;1.63;;;;;;;;;;5063782;28;20381;-69
2023/03/18 14:11:46;;;;;;;4.65;1.98;;;;;;;;;;5066646;28;20048;-69
2023/03/18 14:14:31;;;;;;;3.17;1.35;;;;;;;;;;5064284;28;20047;-70
2023/03/18 14:17:00;;;;;;;6.40;1.70;;;;;;;;;;5064435;28;20113;-70
2023/03/18 14:19:31;;;;;;;5.60;1.50;;;;;;;;;;5065533;28;20016;-70
2023/03/18 14:22:15;;;;;;;4.75;1.52;;;;;;;;;;5063037;28;20406;-70
2023/03/18 14:24:42;;;;;;;1.67;1.10;;;;;;;;;;5061915;28;20138;-70
2023/03/18 14:27:09;;;;;;;4.07;1.50;;;;;;;;;;5055925;28;20049;-71
2023/03/18 14:29:42;;;;;;;2.00;1.00;;;;;;;;;;5062696;28;20017;-71
2023/03/18 14:32:39;;;;;;;6.88;1.35;;;;;;;;;;5064656;28;20027;-70
2023/03/18 14:35:16;;;;;;;3.70;0.57;;;;;;;;;;5040715;28;20486;-70
2023/03/18 14:38:02;;;;;;;3.25;0.70;;;;;;;;;;5054561;28;20022;-71
2023/03/18 14:40:28;;;;;;;5.50;1.05;;;;;;;;;;5060274;28;20021;-70
2023/03/18 14:43:09;;;;;;;6.00;1.52;;;;;;;;;;5058978;28;20286;-70